sensor_id;sensor_type;location;lat;lon;timestamp;pressure;altitude;pressure_sealevel;temperature;humidity
23473;BME280;11909;52.516;13.564;2023-01-30T00:01:45;100736.38;;;0.69;88.34
23473;BME280;11909;52.516;13.564;2023-01-30T00:04:12;100744.03;;;0.72;87.94
23473;BME280;11909;52.516;13.564;2023-01-30T00:06:42;100735.31;;;0.77;87.86
23473;BME280;11909;52.516;13.564;2023-01-30T00:09:12;100727.03;;;0.71;87.96
23473;BME280;11909;52.516;13.564;2023-01-30T00:11:40;100719.53;;;0.74;87.89
23473;BME280;11909;52.516;13.564;2023-01-30T00:14:08;100700.84;;;0.65;88.37
23473;BME280;11909;52.516;13.564;2023-01-30T00:16:36;100692.94;;;0.70;87.84
23473;BME280;11909;52.516;13.564;2023-01-30T00:19:05;100689.41;;;0.70;87.72
23473;BME280;11909;52.516;13.564;2023-01-30T00:21:32;100669.03;;;0.67;88.04
23473;BME280;11909;52.516;13.564;2023-01-30T00:24:00;100669.69;;;0.69;87.54
23473;BME280;11909;52.516;13.564;2023-01-30T00:26:28;100680.28;;;0.64;87.98
23473;BME280;11909;52.516;13.564;2023-01-30T00:28:56;100654.56;;;0.62;88.03
23473;BME280;11909;52.516;13.564;2023-01-30T00:31:23;100660.13;;;0.67;87.96
23473;BME280;11909;52.516;13.564;2023-01-30T00:33:51;100655.34;;;0.69;87.38
23473;BME280;11909;52.516;13.564;2023-01-30T00:36:20;100627.34;;;0.56;87.77
23473;BME280;11909;52.516;13.564;2023-01-30T00:38:48;100617.78;;;0.61;87.37
23473;BME280;11909;52.516;13.564;2023-01-30T00:41:15;100611.97;;;0.57;88.04
23473;BME280;11909;52.516;13.564;2023-01-30T00:43:44;100598.88;;;0.61;87.79
23473;BME280;11909;52.516;13.564;2023-01-30T00:46:30;100591.03;;;0.52;87.86
23473;BME280;11909;52.516;13.564;2023-01-30T00:49:16;100580.06;;;0.47;88.06
23473;BME280;11909;52.516;13.564;2023-01-30T00:51:46;100562.59;;;0.50;87.52
23473;BME280;11909;52.516;13.564;2023-01-30T00:54:14;100548.69;;;0.46;87.84
23473;BME280;11909;52.516;13.564;2023-01-30T00:56:41;100546.59;;;0.48;88.17
23473;BME280;11909;52.516;13.564;2023-01-30T00:59:09;100533.09;;;0.48;88.20
23473;BME280;11909;52.516;13.564;2023-01-30T01:01:37;100509.44;;;0.43;88.06
23473;BME280;11909;52.516;13.564;2023-01-30T01:04:05;100509.41;;;0.50;87.54
23473;BME280;11909;52.516;13.564;2023-01-30T01:06:34;100526.63;;;0.56;87.15
23473;BME280;11909;52.516;13.564;2023-01-30T01:09:03;100527.06;;;0.53;87.32
23473;BME280;11909;52.516;13.564;2023-01-30T01:11:31;100529.19;;;0.44;87.50
23473;BME280;11909;52.516;13.564;2023-01-30T01:14:00;100533.13;;;0.41;87.97
23473;BME280;11909;52.516;13.564;2023-01-30T01:16:29;100524.59;;;0.45;87.71
23473;BME280;11909;52.516;13.564;2023-01-30T01:18:57;100522.53;;;0.47;87.46
23473;BME280;11909;52.516;13.564;2023-01-30T01:21:26;100518.59;;;0.42;87.80
23473;BME280;11909;52.516;13.564;2023-01-30T01:23:55;100468.78;;;0.38;88.17
23473;BME280;11909;52.516;13.564;2023-01-30T01:26:25;100451.78;;;0.38;88.12
23473;BME280;11909;52.516;13.564;2023-01-30T01:28:54;100461.84;;;0.49;87.71
23473;BME280;11909;52.516;13.564;2023-01-30T01:31:21;100466.66;;;0.47;87.42
23473;BME280;11909;52.516;13.564;2023-01-30T01:33:51;100437.78;;;0.48;87.57
23473;BME280;11909;52.516;13.564;2023-01-30T01:36:19;100451.50;;;0.46;87.90
23473;BME280;11909;52.516;13.564;2023-01-30T01:39:06;100448.94;;;0.51;87.79
23473;BME280;11909;52.516;13.564;2023-01-30T01:41:35;100448.75;;;0.53;87.32
23473;BME280;11909;52.516;13.564;2023-01-30T01:44:05;100439.44;;;0.49;87.65
23473;BME280;11909;52.516;13.564;2023-01-30T01:46:35;100458.50;;;0.54;87.79
23473;BME280;11909;52.516;13.564;2023-01-30T01:49:10;100470.72;;;0.56;87.13
23473;BME280;11909;52.516;13.564;2023-01-30T01:51:41;100473.25;;;0.51;87.69
23473;BME280;11909;52.516;13.564;2023-01-30T01:54:14;100456.25;;;0.51;87.86
23473;BME280;11909;52.516;13.564;2023-01-30T01:56:45;100454.13;;;0.53;87.81
23473;BME280;11909;52.516;13.564;2023-01-30T01:59:19;100447.25;;;0.57;87.50
23473;BME280;11909;52.516;13.564;2023-01-30T02:01:49;100443.94;;;0.55;88.05
23473;BME280;11909;52.516;13.564;2023-01-30T02:04:20;100417.16;;;0.53;87.96
23473;BME280;11909;52.516;13.564;2023-01-30T02:07:15;100416.69;;;0.56;88.31
23473;BME280;11909;52.516;13.564;2023-01-30T02:09:45;100408.44;;;0.51;89.31
23473;BME280;11909;52.516;13.564;2023-01-30T02:12:14;100387.75;;;0.45;90.70
23473;BME280;11909;52.516;13.564;2023-01-30T02:14:42;100362.38;;;0.46;90.53
23473;BME280;11909;52.516;13.564;2023-01-30T02:21:09;100341.16;;;0.31;92.65
23473;BME280;11909;52.516;13.564;2023-01-30T02:23:55;100341.16;;;0.31;93.50
23473;BME280;11909;52.516;13.564;2023-01-30T02:26:58;100334.53;;;0.27;94.17
23473;BME280;11909;52.516;13.564;2023-01-30T02:32:44;100298.00;;;0.24;94.80
23473;BME280;11909;52.516;13.564;2023-01-30T02:35:24;100300.13;;;0.22;95.17
23473;BME280;11909;52.516;13.564;2023-01-30T02:37:59;100301.31;;;0.26;94.73
23473;BME280;11909;52.516;13.564;2023-01-30T02:40:38;100303.41;;;0.24;95.07
23473;BME280;11909;52.516;13.564;2023-01-30T02:43:14;100297.41;;;0.22;95.37
23473;BME280;11909;52.516;13.564;2023-01-30T02:45:48;100299.22;;;0.28;95.79
23473;BME280;11909;52.516;13.564;2023-01-30T02:48:22;100299.66;;;0.25;95.94
23473;BME280;11909;52.516;13.564;2023-01-30T02:50:55;100280.56;;;0.27;96.10
23473;BME280;11909;52.516;13.564;2023-01-30T02:53:29;100265.56;;;0.31;97.08
23473;BME280;11909;52.516;13.564;2023-01-30T02:55:58;100274.97;;;0.22;99.10
23473;BME280;11909;52.516;13.564;2023-01-30T02:58:30;100251.97;;;0.19;100.00
23473;BME280;11909;52.516;13.564;2023-01-30T03:01:29;100218.47;;;0.08;100.00
23473;BME280;11909;52.516;13.564;2023-01-30T03:04:18;100230.41;;;0.19;100.00
23473;BME280;11909;52.516;13.564;2023-01-30T03:07:07;100213.59;;;0.17;100.00
23473;BME280;11909;52.516;13.564;2023-01-30T03:09:45;100194.56;;;0.12;100.00
23473;BME280;11909;52.516;13.564;2023-01-30T03:12:22;100204.53;;;0.11;100.00
23473;BME280;11909;52.516;13.564;2023-01-30T03:14:56;100188.72;;;0.15;100.00
23473;BME280;11909;52.516;13.564;2023-01-30T03:17:27;100194.91;;;0.16;100.00
23473;BME280;11909;52.516;13.564;2023-01-30T03:19:57;100196.56;;;0.17;100.00
23473;BME280;11909;52.516;13.564;2023-01-30T03:22:25;100192.88;;;0.11;100.00
23473;BME280;11909;52.516;13.564;2023-01-30T03:24:53;100189.31;;;0.17;100.00
23473;BME280;11909;52.516;13.564;2023-01-30T03:27:21;100188.53;;;0.10;100.00
23473;BME280;11909;52.516;13.564;2023-01-30T03:29:49;100178.72;;;0.16;100.00
23473;BME280;11909;52.516;13.564;2023-01-30T03:32:17;100182.16;;;0.23;100.00
23473;BME280;11909;52.516;13.564;2023-01-30T03:34:44;100189.06;;;0.19;100.00
23473;BME280;11909;52.516;13.564;2023-01-30T03:37:13;100176.78;;;0.23;100.00
23473;BME280;11909;52.516;13.564;2023-01-30T03:39:41;100173.41;;;0.27;100.00
23473;BME280;11909;52.516;13.564;2023-01-30T03:42:09;100185.91;;;0.22;100.00
23473;BME280;11909;52.516;13.564;2023-01-30T03:44:37;100183.59;;;0.25;100.00
23473;BME280;11909;52.516;13.564;2023-01-30T03:47:04;100182.34;;;0.28;100.00
23473;BME280;11909;52.516;13.564;2023-01-30T03:49:32;100173.31;;;0.34;100.00
23473;BME280;11909;52.516;13.564;2023-01-30T03:52:00;100162.53;;;0.34;100.00
23473;BME280;11909;52.516;13.564;2023-01-30T03:54:29;100153.25;;;0.30;100.00
23473;BME280;11909;52.516;13.564;2023-01-30T03:56:56;100147.00;;;0.30;100.00
23473;BME280;11909;52.516;13.564;2023-01-30T03:59:24;100139.28;;;0.33;100.00
23473;BME280;11909;52.516;13.564;2023-01-30T04:01:52;100132.09;;;0.27;100.00
23473;BME280;11909;52.516;13.564;2023-01-30T04:04:20;100133.28;;;0.31;100.00
23473;BME280;11909;52.516;13.564;2023-01-30T04:06:47;100117.78;;;0.26;100.00
23473;BME280;11909;52.516;13.564;2023-01-30T04:09:15;100122.03;;;0.34;100.00
23473;BME280;11909;52.516;13.564;2023-01-30T04:11:44;100115.44;;;0.30;100.00
23473;BME280;11909;52.516;13.564;2023-01-30T04:14:11;100109.97;;;0.37;100.00
23473;BME280;11909;52.516;13.564;2023-01-30T04:16:39;100100.72;;;0.45;100.00
23473;BME280;11909;52.516;13.564;2023-01-30T04:19:07;100094.50;;;0.44;100.00
23473;BME280;11909;52.516;13.564;2023-01-30T04:21:34;100081.00;;;0.44;100.00
23473;BME280;11909;52.516;13.564;2023-01-30T04:24:02;100079.94;;;0.45;100.00
23473;BME280;11909;52.516;13.564;2023-01-30T04:26:30;100096.06;;;0.52;100.00
23473;BME280;11909;52.516;13.564;2023-01-30T04:28:59;100091.47;;;0.52;100.00
23473;BME280;11909;52.516;13.564;2023-01-30T04:31:27;100094.41;;;0.51;100.00
23473;BME280;11909;52.516;13.564;2023-01-30T04:33:55;100082.91;;;0.55;100.00
23473;BME280;11909;52.516;13.564;2023-01-30T04:36:22;100083.41;;;0.64;100.00
23473;BME280;11909;52.516;13.564;2023-01-30T04:38:50;100077.78;;;0.66;100.00
23473;BME280;11909;52.516;13.564;2023-01-30T04:41:18;100086.69;;;0.66;100.00
23473;BME280;11909;52.516;13.564;2023-01-30T04:43:46;100078.97;;;0.70;100.00
23473;BME280;11909;52.516;13.564;2023-01-30T04:46:15;100064.66;;;0.69;100.00
23473;BME280;11909;52.516;13.564;2023-01-30T04:48:43;100060.88;;;0.70;100.00
23473;BME280;11909;52.516;13.564;2023-01-30T04:51:10;100069.03;;;0.82;100.00
23473;BME280;11909;52.516;13.564;2023-01-30T04:53:38;100055.94;;;0.79;100.00
23473;BME280;11909;52.516;13.564;2023-01-30T04:56:06;100050.09;;;0.82;100.00
23473;BME280;11909;52.516;13.564;2023-01-30T04:58:34;100045.63;;;0.76;100.00
23473;BME280;11909;52.516;13.564;2023-01-30T05:01:22;100041.63;;;0.79;100.00
23473;BME280;11909;52.516;13.564;2023-01-30T05:03:51;100038.94;;;0.79;100.00
23473;BME280;11909;52.516;13.564;2023-01-30T05:06:20;100031.63;;;0.79;100.00
23473;BME280;11909;52.516;13.564;2023-01-30T05:08:48;100024.59;;;0.78;100.00
23473;BME280;11909;52.516;13.564;2023-01-30T05:11:17;100017.69;;;0.70;100.00
23473;BME280;11909;52.516;13.564;2023-01-30T05:13:45;100018.72;;;0.69;100.00
23473;BME280;11909;52.516;13.564;2023-01-30T05:16:13;100009.56;;;0.70;100.00
23473;BME280;11909;52.516;13.564;2023-01-30T05:18:43;99997.94;;;0.70;100.00
23473;BME280;11909;52.516;13.564;2023-01-30T05:21:13;99993.00;;;0.67;100.00
23473;BME280;11909;52.516;13.564;2023-01-30T05:23:41;99998.16;;;0.68;100.00
23473;BME280;11909;52.516;13.564;2023-01-30T05:26:09;99985.97;;;0.66;100.00
23473;BME280;11909;52.516;13.564;2023-01-30T05:28:38;99990.78;;;0.64;100.00
23473;BME280;11909;52.516;13.564;2023-01-30T05:31:07;99998.75;;;0.59;100.00
23473;BME280;11909;52.516;13.564;2023-01-30T05:33:36;99983.34;;;0.59;100.00
23473;BME280;11909;52.516;13.564;2023-01-30T05:36:06;99968.13;;;0.65;100.00
23473;BME280;11909;52.516;13.564;2023-01-30T05:38:33;99968.69;;;0.55;100.00
23473;BME280;11909;52.516;13.564;2023-01-30T05:41:03;99979.72;;;0.53;100.00
23473;BME280;11909;52.516;13.564;2023-01-30T05:43:32;99958.84;;;0.61;100.00
23473;BME280;11909;52.516;13.564;2023-01-30T05:46:04;99952.84;;;0.59;100.00
23473;BME280;11909;52.516;13.564;2023-01-30T05:48:33;99956.13;;;0.49;100.00
23473;BME280;11909;52.516;13.564;2023-01-30T05:51:00;99950.84;;;0.54;100.00
23473;BME280;11909;52.516;13.564;2023-01-30T05:53:31;99942.16;;;0.52;100.00
23473;BME280;11909;52.516;13.564;2023-01-30T05:56:02;99936.03;;;0.56;100.00
23473;BME280;11909;52.516;13.564;2023-01-30T05:58:31;99926.44;;;0.49;100.00
23473;BME280;11909;52.516;13.564;2023-01-30T06:00:59;99925.97;;;0.64;100.00
23473;BME280;11909;52.516;13.564;2023-01-30T06:03:27;99923.97;;;0.59;100.00
23473;BME280;11909;52.516;13.564;2023-01-30T06:05:55;99922.31;;;0.58;100.00
23473;BME280;11909;52.516;13.564;2023-01-30T06:08:23;99916.31;;;0.56;100.00
23473;BME280;11909;52.516;13.564;2023-01-30T06:10:52;99932.03;;;0.47;100.00
23473;BME280;11909;52.516;13.564;2023-01-30T06:13:20;99922.19;;;0.53;100.00
23473;BME280;11909;52.516;13.564;2023-01-30T06:15:47;99924.53;;;0.49;100.00
23473;BME280;11909;52.516;13.564;2023-01-30T06:18:15;99933.34;;;0.56;100.00
23473;BME280;11909;52.516;13.564;2023-01-30T06:20:46;99918.91;;;0.63;100.00
23473;BME280;11909;52.516;13.564;2023-01-30T06:23:14;99914.22;;;0.58;100.00
23473;BME280;11909;52.516;13.564;2023-01-30T06:25:43;99923.25;;;0.64;100.00
23473;BME280;11909;52.516;13.564;2023-01-30T06:28:12;99916.44;;;0.61;100.00
23473;BME280;11909;52.516;13.564;2023-01-30T06:30:41;99924.91;;;0.65;100.00
23473;BME280;11909;52.516;13.564;2023-01-30T06:33:09;99915.03;;;0.70;100.00
23473;BME280;11909;52.516;13.564;2023-01-30T06:35:37;99922.44;;;0.75;100.00
23473;BME280;11909;52.516;13.564;2023-01-30T06:38:05;99927.72;;;0.82;100.00
23473;BME280;11909;52.516;13.564;2023-01-30T06:40:34;99924.44;;;0.80;100.00
23473;BME280;11909;52.516;13.564;2023-01-30T06:43:02;99928.75;;;0.93;100.00
23473;BME280;11909;52.516;13.564;2023-01-30T06:45:32;99923.84;;;0.90;100.00
23473;BME280;11909;52.516;13.564;2023-01-30T06:48:00;99934.53;;;0.96;100.00
23473;BME280;11909;52.516;13.564;2023-01-30T06:50:28;99908.31;;;0.97;100.00
23473;BME280;11909;52.516;13.564;2023-01-30T06:52:56;99916.78;;;1.00;100.00
23473;BME280;11909;52.516;13.564;2023-01-30T06:55:25;99914.06;;;1.12;100.00
23473;BME280;11909;52.516;13.564;2023-01-30T06:58:00;99910.66;;;1.17;100.00
23473;BME280;11909;52.516;13.564;2023-01-30T07:00:28;99901.22;;;1.20;100.00
23473;BME280;11909;52.516;13.564;2023-01-30T07:02:58;99894.03;;;1.25;100.00
23473;BME280;11909;52.516;13.564;2023-01-30T07:05:25;99887.34;;;1.28;100.00
23473;BME280;11909;52.516;13.564;2023-01-30T07:07:54;99885.22;;;1.30;100.00
23473;BME280;11909;52.516;13.564;2023-01-30T07:10:22;99884.25;;;1.36;100.00
23473;BME280;11909;52.516;13.564;2023-01-30T07:12:51;99890.09;;;1.45;100.00
23473;BME280;11909;52.516;13.564;2023-01-30T07:15:19;99887.72;;;1.49;100.00
23473;BME280;11909;52.516;13.564;2023-01-30T07:17:47;99877.34;;;1.57;100.00
23473;BME280;11909;52.516;13.564;2023-01-30T07:20:16;99871.69;;;1.59;100.00
23473;BME280;11909;52.516;13.564;2023-01-30T07:22:49;99870.41;;;1.62;100.00
23473;BME280;11909;52.516;13.564;2023-01-30T07:25:17;99867.88;;;1.72;100.00
23473;BME280;11909;52.516;13.564;2023-01-30T07:27:49;99863.88;;;1.75;100.00
23473;BME280;11909;52.516;13.564;2023-01-30T07:30:17;99865.09;;;1.84;100.00
23473;BME280;11909;52.516;13.564;2023-01-30T07:32:48;99856.00;;;1.90;100.00
23473;BME280;11909;52.516;13.564;2023-01-30T07:35:18;99859.06;;;1.94;100.00
23473;BME280;11909;52.516;13.564;2023-01-30T07:37:46;99865.94;;;2.02;100.00
23473;BME280;11909;52.516;13.564;2023-01-30T07:40:14;99865.81;;;2.08;100.00
23473;BME280;11909;52.516;13.564;2023-01-30T07:42:42;99853.41;;;2.12;100.00
23473;BME280;11909;52.516;13.564;2023-01-30T07:45:10;99852.19;;;2.20;100.00
23473;BME280;11909;52.516;13.564;2023-01-30T07:47:38;99866.03;;;2.24;100.00
23473;BME280;11909;52.516;13.564;2023-01-30T07:50:07;99871.63;;;2.34;100.00
23473;BME280;11909;52.516;13.564;2023-01-30T07:52:36;99871.06;;;2.32;100.00
23473;BME280;11909;52.516;13.564;2023-01-30T07:55:04;99872.59;;;2.45;100.00
23473;BME280;11909;52.516;13.564;2023-01-30T07:57:32;99882.84;;;2.43;100.00
23473;BME280;11909;52.516;13.564;2023-01-30T07:59:59;99882.94;;;2.48;100.00
23473;BME280;11909;52.516;13.564;2023-01-30T08:02:27;99889.56;;;2.57;100.00
23473;BME280;11909;52.516;13.564;2023-01-30T08:04:55;99884.47;;;2.61;100.00
23473;BME280;11909;52.516;13.564;2023-01-30T08:07:22;99889.47;;;2.69;100.00
23473;BME280;11909;52.516;13.564;2023-01-30T08:09:52;99889.16;;;2.66;100.00
23473;BME280;11909;52.516;13.564;2023-01-30T08:12:19;99887.88;;;2.73;100.00
23473;BME280;11909;52.516;13.564;2023-01-30T08:14:47;99881.50;;;2.80;100.00
23473;BME280;11909;52.516;13.564;2023-01-30T08:17:15;99872.91;;;2.88;100.00
23473;BME280;11909;52.516;13.564;2023-01-30T08:19:42;99876.69;;;2.87;100.00
23473;BME280;11909;52.516;13.564;2023-01-30T08:22:10;99872.03;;;2.82;100.00
23473;BME280;11909;52.516;13.564;2023-01-30T08:24:38;99875.38;;;2.90;100.00
23473;BME280;11909;52.516;13.564;2023-01-30T08:27:07;99889.31;;;2.98;100.00
23473;BME280;11909;52.516;13.564;2023-01-30T08:29:35;99872.28;;;3.03;100.00
23473;BME280;11909;52.516;13.564;2023-01-30T08:32:03;99861.72;;;3.01;100.00
23473;BME280;11909;52.516;13.564;2023-01-30T08:34:31;99859.06;;;3.07;100.00
23473;BME280;11909;52.516;13.564;2023-01-30T08:36:58;99858.75;;;3.03;100.00
23473;BME280;11909;52.516;13.564;2023-01-30T08:39:26;99840.09;;;3.07;100.00
23473;BME280;11909;52.516;13.564;2023-01-30T08:41:54;99848.34;;;3.17;100.00
23473;BME280;11909;52.516;13.564;2023-01-30T08:44:23;99863.78;;;3.17;100.00
23473;BME280;11909;52.516;13.564;2023-01-30T08:46:50;99868.38;;;3.16;100.00
23473;BME280;11909;52.516;13.564;2023-01-30T08:49:18;99872.22;;;3.20;100.00
23473;BME280;11909;52.516;13.564;2023-01-30T08:51:46;99877.03;;;3.13;100.00
23473;BME280;11909;52.516;13.564;2023-01-30T08:54:13;99872.31;;;3.25;100.00
23473;BME280;11909;52.516;13.564;2023-01-30T08:56:41;99859.97;;;3.12;100.00
23473;BME280;11909;52.516;13.564;2023-01-30T08:59:09;99871.22;;;3.26;100.00
23473;BME280;11909;52.516;13.564;2023-01-30T09:01:38;99867.50;;;3.33;100.00
23473;BME280;11909;52.516;13.564;2023-01-30T09:04:05;99869.38;;;3.32;100.00
23473;BME280;11909;52.516;13.564;2023-01-30T09:06:33;99852.13;;;3.38;100.00
23473;BME280;11909;52.516;13.564;2023-01-30T09:09:01;99866.19;;;3.35;100.00
23473;BME280;11909;52.516;13.564;2023-01-30T09:11:28;99867.50;;;3.33;100.00
23473;BME280;11909;52.516;13.564;2023-01-30T09:13:56;99868.38;;;3.38;100.00
23473;BME280;11909;52.516;13.564;2023-01-30T09:16:24;99866.53;;;3.44;100.00
23473;BME280;11909;52.516;13.564;2023-01-30T09:18:53;99878.72;;;3.41;100.00
23473;BME280;11909;52.516;13.564;2023-01-30T09:21:20;99872.78;;;3.44;100.00
23473;BME280;11909;52.516;13.564;2023-01-30T09:23:48;99880.75;;;3.29;100.00
23473;BME280;11909;52.516;13.564;2023-01-30T09:26:16;99866.81;;;3.42;100.00
23473;BME280;11909;52.516;13.564;2023-01-30T09:28:44;99876.38;;;3.50;100.00
23473;BME280;11909;52.516;13.564;2023-01-30T09:31:11;99872.84;;;3.50;100.00
23473;BME280;11909;52.516;13.564;2023-01-30T09:33:39;99890.19;;;3.49;100.00
23473;BME280;11909;52.516;13.564;2023-01-30T09:36:08;99879.00;;;3.45;100.00
23473;BME280;11909;52.516;13.564;2023-01-30T09:38:36;99875.97;;;3.36;100.00
23473;BME280;11909;52.516;13.564;2023-01-30T09:44:20;99875.69;;;3.60;100.00
23473;BME280;11909;52.516;13.564;2023-01-30T09:47:02;99884.56;;;3.55;100.00
23473;BME280;11909;52.516;13.564;2023-01-30T09:49:42;99874.53;;;3.56;100.00
23473;BME280;11909;52.516;13.564;2023-01-30T09:52:23;99871.09;;;3.66;100.00
23473;BME280;11909;52.516;13.564;2023-01-30T09:54:58;99869.94;;;3.56;100.00
23473;BME280;11909;52.516;13.564;2023-01-30T09:57:28;99859.69;;;3.64;100.00
23473;BME280;11909;52.516;13.564;2023-01-30T09:59:58;99860.56;;;3.69;100.00
23473;BME280;11909;52.516;13.564;2023-01-30T10:02:40;99871.47;;;3.75;100.00
23473;BME280;11909;52.516;13.564;2023-01-30T10:05:09;99854.88;;;3.71;100.00
23473;BME280;11909;52.516;13.564;2023-01-30T10:07:56;99846.47;;;3.72;100.00
23473;BME280;11909;52.516;13.564;2023-01-30T10:10:39;99847.00;;;3.69;100.00
23473;BME280;11909;52.516;13.564;2023-01-30T10:13:29;99849.50;;;3.76;100.00
23473;BME280;11909;52.516;13.564;2023-01-30T10:16:06;99864.19;;;3.80;100.00
23473;BME280;11909;52.516;13.564;2023-01-30T10:21:41;99850.69;;;3.91;100.00
23473;BME280;11909;52.516;13.564;2023-01-30T10:24:30;99851.84;;;3.95;100.00
23473;BME280;11909;52.516;13.564;2023-01-30T10:27:01;99859.19;;;3.99;100.00
23473;BME280;11909;52.516;13.564;2023-01-30T10:29:32;99867.63;;;3.98;100.00
23473;BME280;11909;52.516;13.564;2023-01-30T10:32:08;99866.34;;;4.06;100.00
23473;BME280;11909;52.516;13.564;2023-01-30T10:34:39;99856.44;;;3.94;100.00
23473;BME280;11909;52.516;13.564;2023-01-30T10:37:11;99861.16;;;4.04;100.00
23473;BME280;11909;52.516;13.564;2023-01-30T10:39:46;99863.13;;;4.14;100.00
23473;BME280;11909;52.516;13.564;2023-01-30T10:42:26;99861.75;;;4.11;100.00
23473;BME280;11909;52.516;13.564;2023-01-30T10:45:01;99868.25;;;4.10;100.00
23473;BME280;11909;52.516;13.564;2023-01-30T10:47:42;99871.84;;;4.16;100.00
23473;BME280;11909;52.516;13.564;2023-01-30T10:50:15;99866.19;;;4.23;99.37
23473;BME280;11909;52.516;13.564;2023-01-30T10:52:48;99859.69;;;4.24;99.15
23473;BME280;11909;52.516;13.564;2023-01-30T10:55:27;99866.75;;;4.25;98.58
23473;BME280;11909;52.516;13.564;2023-01-30T10:58:10;99872.53;;;4.34;96.82
23473;BME280;11909;52.516;13.564;2023-01-30T11:00:42;99869.19;;;4.26;96.80
23473;BME280;11909;52.516;13.564;2023-01-30T11:03:20;99860.28;;;4.31;95.01
23473;BME280;11909;52.516;13.564;2023-01-30T11:05:50;99860.22;;;4.21;95.45
23473;BME280;11909;52.516;13.564;2023-01-30T11:08:21;99850.66;;;4.18;96.36
23473;BME280;11909;52.516;13.564;2023-01-30T11:10:51;99856.19;;;4.28;93.05
23473;BME280;11909;52.516;13.564;2023-01-30T11:13:21;99852.69;;;4.33;93.92
23473;BME280;11909;52.516;13.564;2023-01-30T11:15:53;99834.75;;;4.32;94.91
23473;BME280;11909;52.516;13.564;2023-01-30T11:18:22;99851.06;;;4.37;92.55
23473;BME280;11909;52.516;13.564;2023-01-30T11:21:18;99840.25;;;4.42;92.85
23473;BME280;11909;52.516;13.564;2023-01-30T11:23:48;99827.44;;;4.38;92.50
23473;BME280;11909;52.516;13.564;2023-01-30T11:26:22;99824.72;;;4.38;92.88
23473;BME280;11909;52.516;13.564;2023-01-30T11:29:15;99822.91;;;4.49;91.66
23473;BME280;11909;52.516;13.564;2023-01-30T11:31:50;99814.53;;;4.61;91.21
23473;BME280;11909;52.516;13.564;2023-01-30T11:34:20;99804.78;;;4.65;91.45
23473;BME280;11909;52.516;13.564;2023-01-30T11:36:48;99811.03;;;4.65;91.39
23473;BME280;11909;52.516;13.564;2023-01-30T11:39:22;99813.47;;;4.62;91.16
23473;BME280;11909;52.516;13.564;2023-01-30T11:41:59;99800.75;;;4.72;89.30
23473;BME280;11909;52.516;13.564;2023-01-30T11:44:32;99796.09;;;4.68;91.76
23473;BME280;11909;52.516;13.564;2023-01-30T11:47:00;99795.53;;;4.66;89.56
23473;BME280;11909;52.516;13.564;2023-01-30T11:49:32;99794.19;;;4.68;91.04
23473;BME280;11909;52.516;13.564;2023-01-30T11:52:25;99807.19;;;4.61;90.96
23473;BME280;11909;52.516;13.564;2023-01-30T11:54:57;99789.84;;;4.62;90.55
23473;BME280;11909;52.516;13.564;2023-01-30T11:57:38;99794.47;;;4.72;89.42
23473;BME280;11909;52.516;13.564;2023-01-30T12:00:13;99802.91;;;4.65;89.85
23473;BME280;11909;52.516;13.564;2023-01-30T12:02:45;99790.09;;;4.66;89.39
23473;BME280;11909;52.516;13.564;2023-01-30T12:05:21;99800.19;;;4.70;88.32
23473;BME280;11909;52.516;13.564;2023-01-30T12:07:51;99792.56;;;4.67;89.44
23473;BME280;11909;52.516;13.564;2023-01-30T12:10:28;99784.34;;;4.57;92.71
23473;BME280;11909;52.516;13.564;2023-01-30T12:13:00;99777.25;;;4.45;94.67
23473;BME280;11909;52.516;13.564;2023-01-30T12:15:30;99777.41;;;4.28;96.42
23473;BME280;11909;52.516;13.564;2023-01-30T12:18:04;99786.31;;;4.19;97.70
23473;BME280;11909;52.516;13.564;2023-01-30T12:20:45;99778.16;;;4.19;96.83
23473;BME280;11909;52.516;13.564;2023-01-30T12:23:22;99753.09;;;4.06;96.87
23473;BME280;11909;52.516;13.564;2023-01-30T12:25:57;99741.66;;;3.99;98.33
23473;BME280;11909;52.516;13.564;2023-01-30T12:28:35;99753.09;;;4.06;99.60
23473;BME280;11909;52.516;13.564;2023-01-30T12:31:08;99750.50;;;4.27;96.60
23473;BME280;11909;52.516;13.564;2023-01-30T12:33:38;99749.25;;;4.45;96.12
23473;BME280;11909;52.516;13.564;2023-01-30T12:36:14;99745.22;;;4.58;95.74
23473;BME280;11909;52.516;13.564;2023-01-30T12:38:56;99752.06;;;4.71;93.14
23473;BME280;11909;52.516;13.564;2023-01-30T12:41:47;99752.38;;;4.74;93.93
23473;BME280;11909;52.516;13.564;2023-01-30T12:44:29;99745.13;;;5.06;90.57
23473;BME280;11909;52.516;13.564;2023-01-30T12:47:11;99748.38;;;5.03;91.23
23473;BME280;11909;52.516;13.564;2023-01-30T12:49:56;99726.88;;;4.96;91.81
23473;BME280;11909;52.516;13.564;2023-01-30T12:52:38;99761.97;;;5.03;89.09
23473;BME280;11909;52.516;13.564;2023-01-30T12:55:19;99748.66;;;5.01;87.75
23473;BME280;11909;52.516;13.564;2023-01-30T12:57:53;99744.88;;;5.13;87.07
23473;BME280;11909;52.516;13.564;2023-01-30T13:00:32;99748.69;;;5.27;86.11
23473;BME280;11909;52.516;13.564;2023-01-30T13:03:21;99752.78;;;5.30;84.85
23473;BME280;11909;52.516;13.564;2023-01-30T13:05:56;99782.72;;;5.35;85.22
23473;BME280;11909;52.516;13.564;2023-01-30T13:08:38;99750.91;;;5.30;84.41
23473;BME280;11909;52.516;13.564;2023-01-30T13:11:20;99747.63;;;5.34;84.65
23473;BME280;11909;52.516;13.564;2023-01-30T13:14:01;99741.09;;;5.29;83.44
23473;BME280;11909;52.516;13.564;2023-01-30T13:16:37;99759.03;;;5.25;82.82
23473;BME280;11909;52.516;13.564;2023-01-30T13:19:16;99755.22;;;5.21;82.76
23473;BME280;11909;52.516;13.564;2023-01-30T13:21:55;99756.31;;;5.25;81.17
23473;BME280;11909;52.516;13.564;2023-01-30T13:24:40;99761.22;;;5.23;82.48
23473;BME280;11909;52.516;13.564;2023-01-30T13:27:14;99750.88;;;5.20;82.49